Tygh Valley, Oregon
Current Conditions -  °F | °C
As of 12:53 AM on Friday 24 Oct 2014 (Local Time) from KDLS Reporting Station
Broken Clouds Broken Clouds  
Wind Chill: 47°   Ceiling: 12000
Heat Index: 47°   Visibility: 10mi
Dew Point: 44°   Wind: 0mph
Humidity: 90%   Direction: NA
Pressure: 30.04"   Gusts: NA
Location:  45.25°N, 121.18°W
Report Text: KDLS 240753Z AUTO 00000KT 10SM BKN120 08/07 A3004 RMK AO2 SLP172 T00830067 401670078
Loading
Personal Weather Stations






























Interactive Weather Map
Tropical Storm Tracking
New forecast layout! Learn more

10-Day Weather Forecast

Advertisements
Track Severe Weather on mobile